createdAt,value
2018-09-17T00:01:55.150Z,99.90
2018-09-17T00:04:22.920Z,99.90
2018-09-17T00:06:51.060Z,99.90
2018-09-17T00:09:18.796Z,99.90
2018-09-17T00:11:46.724Z,99.90
2018-09-17T00:14:14.480Z,99.90
2018-09-17T00:16:42.241Z,99.90
2018-09-17T00:19:10.020Z,99.90
2018-09-17T00:21:37.780Z,99.90
2018-09-17T00:24:06.187Z,99.90
2018-09-17T00:26:34.365Z,99.90
2018-09-17T00:29:02.165Z,99.90
2018-09-17T00:31:29.912Z,99.90
2018-09-17T00:33:57.740Z,99.90
2018-09-17T00:36:25.504Z,99.90
2018-09-17T00:38:53.244Z,99.90
2018-09-17T00:41:21.057Z,99.90
2018-09-17T00:43:49.072Z,99.90
2018-09-17T00:46:16.896Z,99.90
2018-09-17T00:48:44.684Z,99.90
2018-09-17T00:51:12.852Z,99.90
2018-09-17T00:53:40.595Z,99.90
2018-09-17T00:56:08.327Z,99.90
2018-09-17T00:58:36.020Z,99.90
2018-09-17T01:01:03.865Z,99.90
2018-09-17T01:03:31.653Z,99.90
2018-09-17T01:05:59.424Z,99.90
2018-09-17T01:08:27.193Z,99.90
2018-09-17T01:10:55.000Z,99.90
2018-09-17T01:13:22.732Z,99.90
2018-09-17T01:15:50.448Z,99.90
2018-09-17T01:18:18.157Z,99.90
2018-09-17T01:20:45.890Z,99.90
2018-09-17T01:23:13.612Z,99.90
2018-09-17T01:25:41.348Z,99.90
2018-09-17T01:28:09.244Z,99.90
2018-09-17T01:30:37.010Z,99.90
2018-09-17T01:33:04.940Z,99.90
2018-09-17T01:35:32.692Z,99.90
2018-09-17T01:38:00.388Z,99.90
2018-09-17T01:40:28.354Z,99.90
2018-09-17T01:42:56.069Z,99.90
2018-09-17T01:45:24.044Z,99.90
2018-09-17T01:47:51.813Z,99.90
2018-09-17T01:50:19.637Z,99.90
2018-09-17T01:52:47.412Z,99.90
2018-09-17T01:55:15.149Z,99.90
2018-09-17T01:57:42.873Z,99.90
2018-09-17T02:00:10.672Z,99.90
2018-09-17T02:02:38.480Z,99.90
2018-09-17T02:05:06.571Z,99.90
2018-09-17T02:07:34.392Z,99.90
2018-09-17T02:10:02.274Z,99.90
2018-09-17T02:12:30.036Z,99.90
2018-09-17T02:14:57.776Z,99.90
2018-09-17T02:17:25.656Z,99.90
2018-09-17T02:19:53.851Z,99.90
2018-09-17T02:22:21.604Z,99.90
2018-09-17T02:24:49.433Z,99.90
2018-09-17T02:27:17.235Z,99.90
2018-09-17T02:29:45.442Z,99.90
2018-09-17T02:32:13.227Z,99.90
2018-09-17T02:34:41.028Z,99.90
2018-09-17T02:37:08.797Z,99.90
2018-09-17T02:39:36.704Z,99.90
2018-09-17T02:42:04.724Z,99.90
2018-09-17T02:44:32.444Z,99.90
2018-09-17T02:47:00.169Z,99.90
2018-09-17T02:49:27.944Z,99.90
2018-09-17T02:51:55.729Z,99.90
2018-09-17T02:54:23.553Z,99.90
2018-09-17T02:56:51.334Z,99.90
2018-09-17T02:59:19.072Z,99.90
2018-09-17T03:01:46.852Z,99.90
2018-09-17T03:04:14.612Z,99.90
2018-09-17T03:06:42.632Z,99.90
2018-09-17T03:09:10.796Z,99.90
2018-09-17T03:11:38.571Z,99.90
2018-09-17T03:14:06.632Z,99.90
2018-09-17T03:16:45.651Z,99.90
2018-09-17T03:19:13.444Z,99.90
2018-09-17T03:21:41.224Z,99.90
2018-09-17T03:24:09.340Z,99.90
2018-09-17T03:26:37.125Z,99.90
2018-09-17T03:29:04.973Z,99.90
2018-09-17T03:31:32.928Z,99.90
2018-09-17T03:34:00.620Z,99.90
2018-09-17T03:36:28.357Z,99.90
2018-09-17T03:38:56.153Z,99.90
2018-09-17T03:41:23.953Z,99.90
2018-09-17T03:43:52.252Z,99.90
2018-09-17T03:46:20.495Z,99.90
2018-09-17T03:48:48.420Z,99.90
2018-09-17T03:51:16.709Z,99.90
2018-09-17T03:53:45.194Z,99.90
2018-09-17T03:56:12.984Z,99.90
2018-09-17T03:58:40.773Z,99.90
2018-09-17T04:01:09.032Z,99.90
2018-09-17T04:03:36.820Z,99.90
2018-09-17T04:06:04.630Z,99.90
2018-09-17T04:08:32.910Z,99.90
2018-09-17T04:11:00.705Z,99.90
2018-09-17T04:13:28.640Z,99.90
2018-09-17T04:15:56.489Z,99.90
2018-09-17T04:18:24.444Z,99.90
2018-09-17T04:20:52.240Z,99.90
2018-09-17T04:23:37.211Z,99.90
2018-09-17T04:26:06.678Z,99.90
2018-09-17T04:28:35.068Z,99.90
2018-09-17T04:31:03.176Z,99.90
2018-09-17T04:33:33.220Z,99.90
2018-09-17T04:36:01.024Z,99.90
2018-09-17T04:38:28.914Z,99.90
2018-09-17T04:40:56.736Z,99.90
2018-09-17T04:43:24.450Z,99.90
2018-09-17T04:45:52.199Z,99.90
2018-09-17T04:48:20.005Z,99.90
2018-09-17T04:50:47.723Z,99.90
2018-09-17T04:53:15.590Z,99.90
2018-09-17T04:55:43.460Z,99.90
2018-09-17T04:58:11.230Z,99.90
2018-09-17T05:00:38.952Z,99.90
2018-09-17T05:03:06.707Z,99.90
2018-09-17T05:05:34.518Z,99.90
2018-09-17T05:08:03.108Z,99.90
2018-09-17T05:10:31.112Z,99.90
2018-09-17T05:12:58.979Z,99.90
2018-09-17T05:15:26.668Z,99.90
2018-09-17T05:17:54.512Z,99.90
2018-09-17T05:20:22.264Z,99.90
2018-09-17T05:22:50.068Z,99.90
2018-09-17T05:25:17.820Z,99.90
2018-09-17T05:27:45.625Z,99.90
2018-09-17T05:30:13.436Z,99.90
2018-09-17T05:32:41.297Z,99.90
2018-09-17T05:35:09.199Z,99.90
2018-09-17T05:37:36.900Z,99.90
2018-09-17T05:40:04.828Z,99.90
2018-09-17T05:42:32.592Z,99.90
2018-09-17T05:45:00.409Z,99.90
2018-09-17T05:47:28.291Z,99.90
2018-09-17T05:49:56.080Z,99.90
2018-09-17T05:52:23.864Z,99.90
2018-09-17T05:54:51.608Z,99.90
2018-09-17T05:57:19.417Z,99.90
2018-09-17T05:59:47.184Z,99.90
2018-09-17T06:02:14.991Z,99.90
2018-09-17T06:04:42.880Z,99.90
2018-09-17T06:07:10.712Z,99.90
2018-09-17T06:09:38.473Z,99.90
2018-09-17T06:12:06.448Z,99.90
2018-09-17T06:14:34.375Z,99.90
2018-09-17T06:17:02.040Z,99.90
2018-09-17T06:19:29.889Z,99.90
2018-09-17T06:21:57.773Z,99.90
2018-09-17T06:24:25.563Z,99.90
2018-09-17T06:26:53.336Z,99.90
2018-09-17T06:29:21.062Z,99.90
2018-09-17T06:31:48.888Z,99.90
2018-09-17T06:34:16.710Z,99.90
2018-09-17T06:36:44.536Z,99.90
2018-09-17T06:39:12.400Z,99.90
2018-09-17T06:41:40.235Z,99.90
2018-09-17T06:44:08.145Z,99.90
2018-09-17T06:46:35.924Z,99.90
2018-09-17T06:49:03.700Z,99.90
2018-09-17T06:51:32.409Z,99.90
2018-09-17T06:54:00.101Z,99.90
2018-09-17T06:56:27.811Z,99.90
2018-09-17T06:58:55.619Z,96.40
2018-09-17T07:01:23.416Z,95.10
2018-09-17T07:03:51.164Z,94.60
2018-09-17T07:06:18.969Z,92.80
2018-09-17T07:08:46.729Z,90.70
2018-09-17T07:11:14.528Z,87.70
2018-09-17T07:13:42.357Z,83.40
2018-09-17T07:16:10.112Z,77.30
2018-09-17T07:18:38.200Z,72.30
2018-09-17T07:21:06.188Z,68.50
2018-09-17T07:23:34.548Z,66.70
2018-09-17T07:26:02.529Z,63.60
2018-09-17T07:28:30.283Z,59.30
2018-09-17T07:30:58.300Z,56.60
2018-09-17T07:33:26.016Z,55.20
2018-09-17T07:35:53.776Z,53.80
2018-09-17T07:38:22.242Z,52.10
2018-09-17T07:40:50.016Z,51.30
2018-09-17T07:43:17.860Z,50.00
2018-09-17T07:45:45.659Z,51.00
2018-09-17T07:48:13.617Z,50.10
2018-09-17T07:50:42.013Z,49.30
2018-09-17T07:53:10.220Z,48.00
2018-09-17T07:55:38.528Z,48.40
2018-09-17T07:58:06.505Z,47.30
2018-09-17T08:00:34.260Z,48.10
2018-09-17T08:03:02.044Z,47.00
2018-09-17T08:05:29.792Z,46.60
2018-09-17T08:07:57.573Z,47.10
2018-09-17T08:10:26.068Z,47.00
2018-09-17T08:12:53.899Z,45.70
2018-09-17T08:15:22.140Z,43.80
2018-09-17T08:17:51.148Z,44.20
2018-09-17T08:20:19.024Z,41.50
2018-09-17T08:22:46.880Z,38.70
2018-09-17T08:25:14.738Z,40.80
2018-09-17T08:27:42.552Z,39.80
2018-09-17T08:30:10.440Z,39.20
2018-09-17T08:32:38.576Z,38.80
2018-09-17T08:35:07.464Z,40.00
2018-09-17T08:37:35.820Z,43.30
2018-09-17T08:40:04.212Z,45.60
2018-09-17T08:42:31.952Z,42.80
2018-09-17T08:44:59.772Z,40.50
2018-09-17T08:47:28.023Z,38.40
2018-09-17T08:49:55.814Z,37.90
2018-09-17T08:52:23.684Z,36.60
2018-09-17T08:54:57.246Z,36.10
2018-09-17T08:57:35.752Z,34.80
2018-09-17T09:00:11.820Z,35.10
2018-09-17T09:02:43.369Z,34.20
2018-09-17T09:05:17.472Z,37.00
2018-09-17T09:07:50.876Z,39.30
2018-09-17T09:10:25.700Z,40.10
2018-09-17T09:13:00.097Z,38.90
2018-09-17T09:15:35.125Z,35.60
2018-09-17T09:18:03.466Z,34.10
2018-09-17T09:20:31.300Z,33.50
2018-09-17T09:22:59.396Z,31.90
2018-09-17T09:25:27.232Z,31.10
2018-09-17T09:27:55.046Z,29.70
2018-09-17T09:30:22.976Z,32.90
2018-09-17T09:32:50.848Z,33.90
2018-09-17T09:35:19.436Z,34.80
2018-09-17T09:37:47.256Z,32.40
2018-09-17T09:40:15.318Z,32.70
2018-09-17T09:42:43.741Z,34.30
2018-09-17T09:45:11.732Z,34.90
2018-09-17T09:47:39.772Z,35.80
2018-09-17T09:50:07.760Z,35.00
2018-09-17T09:52:35.613Z,33.00
2018-09-17T09:55:03.430Z,32.80
2018-09-17T09:57:31.176Z,32.50
2018-09-17T09:59:58.985Z,33.90
2018-09-17T10:02:35.337Z,35.50
2018-09-17T10:05:04.371Z,35.00
2018-09-17T10:07:32.152Z,36.00
2018-09-17T10:10:05.596Z,33.10
2018-09-17T10:12:39.032Z,32.90
2018-09-17T10:15:12.524Z,34.50
2018-09-17T10:17:45.993Z,33.70
2018-09-17T10:20:13.789Z,32.80
2018-09-17T10:22:41.781Z,31.20
2018-09-17T10:25:09.544Z,29.30
2018-09-17T10:27:38.049Z,29.30
2018-09-17T10:30:06.342Z,31.30
2018-09-17T10:32:34.096Z,33.10
2018-09-17T10:35:01.892Z,32.70
2018-09-17T10:37:29.696Z,32.50
2018-09-17T10:39:57.559Z,32.50
2018-09-17T10:42:25.334Z,33.40
2018-09-17T10:44:53.192Z,33.60
2018-09-17T10:47:20.944Z,33.90
2018-09-17T10:49:48.805Z,33.40
2018-09-17T10:52:16.680Z,33.30
2018-09-17T10:54:44.648Z,33.60
2018-09-17T10:57:12.449Z,34.10
2018-09-17T10:59:40.270Z,33.10
2018-09-17T11:02:08.040Z,33.40
2018-09-17T11:04:36.001Z,33.20
2018-09-17T11:07:03.812Z,33.20
2018-09-17T11:09:31.600Z,32.50
2018-09-17T11:11:59.408Z,31.90
2018-09-17T11:14:27.263Z,32.40
2018-09-17T11:16:55.029Z,33.00
2018-09-17T11:19:22.834Z,33.50
2018-09-17T11:21:50.672Z,34.90
2018-09-17T11:24:18.616Z,35.40
2018-09-17T11:26:46.498Z,35.70
2018-09-17T11:29:14.352Z,34.50
2018-09-17T11:31:42.150Z,34.40
2018-09-17T11:34:10.564Z,32.60
2018-09-17T11:36:38.394Z,32.90
2018-09-17T11:39:09.889Z,33.50
2018-09-17T11:41:37.740Z,34.40
2018-09-17T11:44:05.552Z,35.90
2018-09-17T11:46:33.381Z,34.70
2018-09-17T11:49:01.904Z,34.00
2018-09-17T11:51:29.768Z,34.40
2018-09-17T11:53:57.662Z,33.80
2018-09-17T11:56:25.344Z,34.20
2018-09-17T11:58:53.160Z,34.30
2018-09-17T12:01:26.561Z,33.20
2018-09-17T12:04:00.081Z,33.60
2018-09-17T12:06:33.569Z,34.20
2018-09-17T12:09:01.515Z,33.80
2018-09-17T12:11:29.800Z,33.20
2018-09-17T12:13:57.884Z,32.60
2018-09-17T12:16:25.584Z,31.60
2018-09-17T12:18:53.401Z,31.80
2018-09-17T12:21:21.473Z,31.20
2018-09-17T12:23:49.249Z,31.60
2018-09-17T12:26:17.026Z,31.90
2018-09-17T12:28:45.117Z,33.20
2018-09-17T12:31:12.985Z,32.70
2018-09-17T12:33:40.807Z,31.40
2018-09-17T12:36:08.624Z,30.50
2018-09-17T12:38:36.420Z,30.00
2018-09-17T12:41:04.220Z,29.80
2018-09-17T12:43:31.956Z,31.50
2018-09-17T12:45:59.824Z,31.30
2018-09-17T12:48:27.556Z,31.90
2018-09-17T12:50:55.268Z,32.10
2018-09-17T12:53:23.270Z,31.90
2018-09-17T12:55:51.060Z,31.70
2018-09-17T12:58:18.806Z,32.20
2018-09-17T13:00:46.504Z,32.50
2018-09-17T13:03:14.470Z,33.50
2018-09-17T13:05:42.259Z,33.20
2018-09-17T13:08:10.040Z,32.50
2018-09-17T13:10:37.817Z,33.20
2018-09-17T13:13:05.672Z,32.60
2018-09-17T13:15:36.998Z,32.60
2018-09-17T13:18:05.112Z,32.60
2018-09-17T13:20:32.917Z,32.50
2018-09-17T13:23:00.845Z,31.80
2018-09-17T13:25:28.656Z,31.50
2018-09-17T13:27:56.457Z,31.60
2018-09-17T13:30:24.268Z,31.40
2018-09-17T13:32:52.644Z,30.20
2018-09-17T13:35:20.389Z,30.10
2018-09-17T13:37:48.171Z,32.10
2018-09-17T13:40:16.177Z,31.50
2018-09-17T13:42:43.941Z,30.20
2018-09-17T13:45:11.729Z,29.60
2018-09-17T13:47:39.554Z,30.40
2018-09-17T13:50:07.354Z,30.20
2018-09-17T13:52:35.120Z,30.10
2018-09-17T13:55:03.627Z,29.90
2018-09-17T13:57:31.393Z,29.50
2018-09-17T13:59:59.636Z,30.30
2018-09-17T14:02:27.536Z,29.20
2018-09-17T14:04:55.508Z,29.90
2018-09-17T14:07:23.220Z,29.10
2018-09-17T14:09:51.009Z,28.60
2018-09-17T14:12:19.065Z,27.80
2018-09-17T14:14:46.821Z,28.00
2018-09-17T14:17:14.615Z,29.40
2018-09-17T14:19:42.452Z,29.20
2018-09-17T14:22:10.204Z,30.00
2018-09-17T14:24:38.059Z,31.40
2018-09-17T14:27:05.849Z,29.80
2018-09-17T14:29:33.716Z,30.70
2018-09-17T14:32:07.370Z,30.70
2018-09-17T14:34:35.056Z,31.80
2018-09-17T14:37:02.856Z,31.20
2018-09-17T14:39:30.609Z,33.50
2018-09-17T14:41:58.385Z,34.60
2018-09-17T14:44:26.136Z,34.30
2018-09-17T14:46:53.920Z,33.70
2018-09-17T14:49:21.638Z,33.40
2018-09-17T14:51:49.620Z,35.00
2018-09-17T14:54:17.411Z,35.00
2018-09-17T14:56:45.260Z,33.00
2018-09-17T14:59:13.232Z,34.00
2018-09-17T15:01:41.135Z,33.00
2018-09-17T15:04:08.906Z,33.20
2018-09-17T15:06:36.592Z,34.30
2018-09-17T15:09:07.694Z,36.30
2018-09-17T15:11:35.501Z,35.00
2018-09-17T15:14:03.344Z,36.10
2018-09-17T15:16:31.191Z,37.70
2018-09-17T15:18:58.968Z,36.10
2018-09-17T15:21:26.752Z,36.00
2018-09-17T15:23:54.619Z,38.30
2018-09-17T15:26:22.398Z,35.90
2018-09-17T15:28:50.148Z,36.70
2018-09-17T15:31:18.049Z,36.10
2018-09-17T15:33:45.779Z,38.70
2018-09-17T15:36:13.651Z,35.80
2018-09-17T15:38:41.407Z,37.60
2018-09-17T15:41:09.408Z,36.50
2018-09-17T15:43:36.991Z,35.60
2018-09-17T15:46:04.814Z,38.00
2018-09-17T15:48:32.548Z,37.70
2018-09-17T15:51:00.252Z,35.40
2018-09-17T15:53:27.988Z,35.50
2018-09-17T15:55:55.814Z,39.20
2018-09-17T15:58:23.595Z,38.50
2018-09-17T16:00:51.328Z,39.00
2018-09-17T16:03:19.066Z,37.30
2018-09-17T16:05:46.902Z,40.70
2018-09-17T16:08:14.728Z,38.40
2018-09-17T16:10:42.511Z,40.80
2018-09-17T16:13:10.369Z,41.50
2018-09-17T16:15:38.122Z,41.60
2018-09-17T16:18:05.884Z,41.60
2018-09-17T16:20:33.681Z,42.10
2018-09-17T16:23:01.413Z,42.80
2018-09-17T16:25:29.234Z,43.20
2018-09-17T16:27:57.089Z,43.80
2018-09-17T16:30:24.808Z,44.30
2018-09-17T16:32:52.492Z,46.10
2018-09-17T16:35:20.237Z,46.60
2018-09-17T16:37:47.964Z,47.90
2018-09-17T16:40:15.763Z,49.30
2018-09-17T16:42:43.948Z,50.80
2018-09-17T16:45:11.645Z,51.80
2018-09-17T16:47:39.440Z,52.90
2018-09-17T16:50:07.263Z,53.70
2018-09-17T16:52:35.037Z,54.90
2018-09-17T16:55:02.915Z,56.00
2018-09-17T16:57:30.705Z,57.00
2018-09-17T16:59:58.505Z,58.20
2018-09-17T17:02:26.370Z,58.30
2018-09-17T17:04:54.342Z,59.60
2018-09-17T17:07:22.040Z,60.60
2018-09-17T17:09:49.823Z,60.80
2018-09-17T17:12:17.551Z,62.00
2018-09-17T17:14:45.336Z,62.40
2018-09-17T17:17:13.081Z,63.80
2018-09-17T17:19:40.876Z,64.90
2018-09-17T17:22:08.944Z,66.50
2018-09-17T17:24:36.668Z,68.70
2018-09-17T17:27:04.470Z,70.50
2018-09-17T17:29:32.252Z,72.80
2018-09-17T17:31:59.977Z,73.70
2018-09-17T17:34:27.669Z,77.10
2018-09-17T17:36:55.481Z,79.20
2018-09-17T17:39:23.340Z,83.60
2018-09-17T17:41:51.243Z,86.70
2018-09-17T17:44:18.965Z,88.40
2018-09-17T17:46:46.684Z,90.30
2018-09-17T17:49:14.428Z,91.10
2018-09-17T17:51:42.254Z,91.80
2018-09-17T17:54:09.952Z,92.80
2018-09-17T17:56:37.678Z,93.90
2018-09-17T17:59:05.749Z,94.90
2018-09-17T18:01:33.540Z,95.90
2018-09-17T18:04:01.642Z,96.70
2018-09-17T18:06:29.277Z,97.30
2018-09-17T18:08:57.096Z,97.80
2018-09-17T18:11:24.835Z,98.40
2018-09-17T18:13:52.636Z,97.60
2018-09-17T18:16:25.010Z,97.60
2018-09-17T18:18:52.748Z,97.60
2018-09-17T18:21:20.562Z,97.60
2018-09-17T18:23:48.243Z,97.90
2018-09-17T18:26:16.053Z,97.80
2018-09-17T18:28:43.900Z,97.60
2018-09-17T18:31:11.552Z,97.40
2018-09-17T18:33:39.515Z,97.70
2018-09-17T18:36:07.321Z,97.30
2018-09-17T18:38:35.048Z,97.10
2018-09-17T18:41:02.848Z,98.00
2018-09-17T18:43:30.628Z,98.40
2018-09-17T18:45:58.396Z,99.90
2018-09-17T18:48:26.315Z,99.90
2018-09-17T18:50:54.017Z,99.90
2018-09-17T18:53:21.680Z,99.90
2018-09-17T18:55:49.559Z,99.90
2018-09-17T18:58:17.360Z,99.90
2018-09-17T19:00:45.133Z,99.90
2018-09-17T19:03:13.013Z,99.90
2018-09-17T19:05:40.761Z,99.90
2018-09-17T19:08:08.556Z,99.90
2018-09-17T19:10:36.352Z,99.90
2018-09-17T19:13:04.189Z,99.90
2018-09-17T19:15:37.568Z,99.90
2018-09-17T19:18:11.182Z,99.90
2018-09-17T19:20:39.120Z,99.90
2018-09-17T19:23:12.503Z,99.90
2018-09-17T19:25:40.310Z,99.90
2018-09-17T19:28:13.810Z,99.90
2018-09-17T19:30:41.624Z,99.90
2018-09-17T19:33:09.384Z,99.90
2018-09-17T19:35:37.204Z,99.90
2018-09-17T19:38:10.810Z,99.90
2018-09-17T19:40:38.492Z,99.90
2018-09-17T19:43:06.508Z,99.90
2018-09-17T19:45:40.065Z,99.90
2018-09-17T19:48:07.966Z,99.90
2018-09-17T19:50:41.429Z,99.90
2018-09-17T19:53:09.272Z,99.90
2018-09-17T19:55:37.102Z,99.90
2018-09-17T19:58:10.600Z,99.90
2018-09-17T20:00:38.516Z,99.90
2018-09-17T20:03:06.394Z,99.90
2018-09-17T20:05:40.243Z,99.90
2018-09-17T20:08:08.005Z,99.90
2018-09-17T20:10:35.729Z,99.90
2018-09-17T20:13:03.480Z,99.90
2018-09-17T20:15:31.232Z,99.90
2018-09-17T20:17:59.020Z,99.90
2018-09-17T20:20:26.868Z,99.90
2018-09-17T20:22:54.582Z,99.90
2018-09-17T20:25:22.324Z,99.90
2018-09-17T20:27:50.069Z,99.90
2018-09-17T20:30:17.821Z,99.90
2018-09-17T20:32:45.856Z,99.90
2018-09-17T20:35:13.613Z,99.90
2018-09-17T20:37:41.424Z,99.90
2018-09-17T20:40:09.145Z,99.90
2018-09-17T20:42:37.191Z,99.90
2018-09-17T20:45:05.033Z,99.90
2018-09-17T20:47:32.804Z,99.90
2018-09-17T20:50:00.621Z,99.90
2018-09-17T20:52:28.421Z,99.90
2018-09-17T20:54:56.258Z,99.90
2018-09-17T20:57:24.290Z,99.90
2018-09-17T20:59:52.045Z,99.90
2018-09-17T21:02:19.793Z,99.90
2018-09-17T21:04:47.569Z,99.90
2018-09-17T21:07:15.375Z,99.90
2018-09-17T21:09:43.193Z,99.90
2018-09-17T21:12:10.965Z,99.90
2018-09-17T21:14:38.654Z,99.90
2018-09-17T21:17:06.418Z,99.90
2018-09-17T21:19:34.339Z,99.90
2018-09-17T21:22:01.947Z,99.90
2018-09-17T21:24:29.668Z,99.90
2018-09-17T21:26:57.480Z,99.90
2018-09-17T21:29:25.257Z,99.90
2018-09-17T21:31:52.994Z,99.90
2018-09-17T21:34:20.672Z,99.90
2018-09-17T21:36:48.472Z,99.90
2018-09-17T21:39:16.108Z,99.90
2018-09-17T21:41:43.896Z,99.90
2018-09-17T21:44:11.672Z,99.90
2018-09-17T21:46:39.424Z,99.90
2018-09-17T21:49:07.432Z,99.90
2018-09-17T21:51:35.229Z,99.90
2018-09-17T21:54:03.080Z,99.90
2018-09-17T21:56:30.841Z,99.90
2018-09-17T21:58:58.595Z,99.90
2018-09-17T22:01:26.316Z,99.90
2018-09-17T22:03:54.153Z,99.90
2018-09-17T22:06:21.924Z,99.90
2018-09-17T22:08:49.691Z,99.90
2018-09-17T22:11:17.516Z,99.90
2018-09-17T22:13:45.341Z,99.90
2018-09-17T22:16:13.032Z,99.90
2018-09-17T22:18:40.812Z,99.90
2018-09-17T22:21:08.616Z,99.90
2018-09-17T22:23:37.340Z,99.90
2018-09-17T22:26:05.172Z,99.90
2018-09-17T22:28:33.034Z,99.90
2018-09-17T22:31:00.792Z,99.90
2018-09-17T22:33:28.620Z,99.90
2018-09-17T22:35:56.500Z,99.90
2018-09-17T22:38:24.244Z,99.90
2018-09-17T22:40:52.050Z,99.90
2018-09-17T22:43:20.156Z,99.90
2018-09-17T22:45:47.944Z,99.90
2018-09-17T22:48:15.732Z,99.90
2018-09-17T22:50:43.511Z,99.90
2018-09-17T22:53:11.270Z,99.90
2018-09-17T22:55:39.146Z,99.90
2018-09-17T22:58:06.888Z,99.90
2018-09-17T23:00:34.655Z,99.90
2018-09-17T23:03:02.547Z,99.90
2018-09-17T23:05:30.364Z,99.90
2018-09-17T23:07:58.128Z,99.90
2018-09-17T23:10:25.884Z,99.90
2018-09-17T23:12:53.691Z,99.90
2018-09-17T23:15:21.492Z,99.90
2018-09-17T23:17:49.284Z,99.90
2018-09-17T23:20:17.032Z,99.90
2018-09-17T23:22:44.748Z,99.90
2018-09-17T23:25:12.697Z,99.90
2018-09-17T23:27:40.500Z,99.90
2018-09-17T23:30:08.358Z,99.90
2018-09-17T23:32:36.120Z,99.90
2018-09-17T23:35:03.988Z,99.90
2018-09-17T23:37:31.747Z,99.90
2018-09-17T23:39:59.896Z,99.90
2018-09-17T23:42:27.643Z,99.90
2018-09-17T23:44:55.352Z,99.90
2018-09-17T23:47:23.125Z,99.90
2018-09-17T23:49:50.917Z,99.90
2018-09-17T23:52:18.614Z,99.90
2018-09-17T23:54:46.376Z,99.90
2018-09-17T23:57:14.112Z,99.90
2018-09-17T23:59:42.283Z,99.90
